Time;durP1;ratioP1;P1;durP2;ratioP2;P2;SDS_P1;SDS_P2;PMS_P1;PMS_P2;Temp;Humidity;BMP_temperature;BMP_pressure;BME280_temperature;BME280_humidity;BME280_pressure;Samples;Min_cycle;Max_cycle;Signal;HPM_P1;HPM_P2
2022/06/13 00:01:08;;;;;;;9.60;5.83;;;13.70;99.90;;;;;;4977381;28;20502;-71
2022/06/13 00:03:57;;;;;;;6.70;5.40;;;13.70;99.90;;;;;;4975192;28;20560;-71
2022/06/13 00:06:46;;;;;;;11.63;5.70;;;13.70;99.90;;;;;;4974213;28;20994;-72
2022/06/13 00:09:34;;;;;;;9.23;5.67;;;13.70;99.90;;;;;;4971861;28;20583;-70
2022/06/13 00:12:25;;;;;;;10.30;5.80;;;13.70;99.90;;;;;;4979260;28;20521;-73
2022/06/13 00:15:17;;;;;;;9.57;6.00;;;13.60;99.90;;;;;;4976040;28;20843;-72
2022/06/13 00:18:05;;;;;;;9.97;5.23;;;13.60;99.90;;;;;;4982319;28;20493;-73
2022/06/13 00:20:54;;;;;;;9.17;5.70;;;13.50;99.90;;;;;;4982324;28;20607;-72
2022/06/13 00:23:55;;;;;;;9.67;5.73;;;13.50;99.90;;;;;;4979065;28;20516;-72
2022/06/13 00:26:47;;;;;;;9.30;4.80;;;13.50;99.90;;;;;;4979531;28;20854;-70
2022/06/13 00:29:42;;;;;;;10.07;5.77;;;13.50;99.90;;;;;;4980695;28;20457;-71
2022/06/13 00:32:34;;;;;;;7.50;5.80;;;13.50;99.90;;;;;;4983303;28;20477;-70
2022/06/13 00:35:22;;;;;;;8.67;5.33;;;13.50;99.90;;;;;;4979572;28;20603;-71
2022/06/13 00:38:12;;;;;;;8.13;5.87;;;13.50;99.90;;;;;;4982716;28;21010;-70
2022/06/13 00:41:00;;;;;;;7.03;5.20;;;13.50;99.90;;;;;;4977897;28;20758;-70
2022/06/13 00:43:48;;;;;;;9.90;6.00;;;13.40;99.90;;;;;;4982588;28;20560;-70
2022/06/13 00:46:39;;;;;;;14.77;5.80;;;13.50;99.90;;;;;;4985907;28;20471;-71
2022/06/13 00:49:37;;;;;;;10.57;5.10;;;13.60;99.90;;;;;;4978931;28;20569;-71
2022/06/13 00:52:30;;;;;;;8.43;6.53;;;13.50;99.90;;;;;;4980905;28;20574;-73
2022/06/13 00:55:26;;;;;;;8.33;5.90;;;13.50;99.90;;;;;;4980415;28;20495;-71
2022/06/13 00:58:14;;;;;;;8.53;6.20;;;13.50;99.90;;;;;;4978293;28;20532;-71
2022/06/13 01:01:08;;;;;;;12.60;6.23;;;13.50;99.90;;;;;;4973060;28;20456;-71
2022/06/13 01:04:12;;;;;;;6.77;5.40;;;13.50;99.90;;;;;;4979181;28;20604;-71
2022/06/13 01:07:11;;;;;;;8.37;5.73;;;13.50;99.90;;;;;;4971671;28;20450;-71
2022/06/13 01:13:14;;;;;;;9.63;5.47;;;13.50;99.90;;;;;;4977412;28;20580;-70
2022/06/13 01:16:16;;;;;;;9.07;5.87;;;13.60;99.90;;;;;;4991041;28;20564;-71
2022/06/13 01:23:43;;;;;;;9.30;5.70;;;13.60;99.90;;;;;;4952732;28;20570;-70
2022/06/13 01:27:19;;;;;;;10.27;5.27;;;13.50;99.90;;;;;;4984374;28;21060;-70
2022/06/13 01:33:15;;;;;;;10.50;5.13;;;13.50;99.90;;;;;;5060453;27;20575;-71
2022/06/13 01:36:21;;;;;;;7.00;5.53;;;13.40;99.90;;;;;;5061758;28;20480;-71
2022/06/13 01:39:33;;;;;;;12.30;5.90;;;13.40;99.90;;;;;;5059412;28;20583;-71
2022/06/13 01:42:41;;;;;;;9.17;5.57;;;13.30;99.90;;;;;;5061882;28;20480;-71
2022/06/13 01:45:40;;;;;;;9.10;5.57;;;13.30;99.90;;;;;;5064410;28;20672;-71
2022/06/13 01:48:41;;;;;;;10.93;6.23;;;13.20;99.90;;;;;;5066398;28;20450;-71
2022/06/13 01:51:38;;;;;;;8.40;5.60;;;13.20;99.90;;;;;;5066235;28;20457;-71
2022/06/13 01:54:34;;;;;;;13.07;6.37;;;13.20;99.90;;;;;;5061888;28;21038;-72
2022/06/13 01:57:35;;;;;;;8.03;5.17;;;13.20;99.90;;;;;;5063586;28;20445;-71
2022/06/13 02:00:39;;;;;;;12.73;5.80;;;13.10;99.90;;;;;;5066667;28;20523;-71
2022/06/13 02:03:43;;;;;;;11.27;5.20;;;13.20;99.90;;;;;;5059986;28;21043;-72
2022/06/13 02:06:37;;;;;;;6.53;5.47;;;13.10;99.90;;;;;;5063673;28;20552;-71
2022/06/13 02:09:29;;;;;;;11.27;5.87;;;13.00;99.90;;;;;;5059369;28;20648;-71
2022/06/13 02:12:34;;;;;;;7.67;5.40;;;13.00;99.90;;;;;;5061786;28;20462;-71
2022/06/13 02:15:30;;;;;;;7.80;5.10;;;13.00;99.90;;;;;;5061899;28;20702;-71
2022/06/13 02:18:25;;;;;;;9.30;5.83;;;13.00;99.90;;;;;;5061877;28;20538;-71
2022/06/13 02:21:19;;;;;;;8.07;6.10;;;12.90;99.90;;;;;;5062237;28;20557;-71
2022/06/13 02:24:14;;;;;;;10.53;6.43;;;13.00;99.90;;;;;;5068747;28;20505;-71
2022/06/13 02:30:35;;;;;;;9.37;5.77;;;13.00;99.90;;;;;;5063310;28;20450;-71
2022/06/13 02:33:28;;;;;;;9.70;6.40;;;13.00;99.90;;;;;;5066183;28;21008;-71
2022/06/13 02:36:23;;;;;;;9.70;6.50;;;13.10;99.90;;;;;;5066189;28;20551;-71
2022/06/13 02:39:18;;;;;;;7.60;6.30;;;13.10;99.90;;;;;;5064685;28;20452;-71
2022/06/13 02:42:21;;;;;;;11.93;6.30;;;13.10;99.90;;;;;;5065594;28;20579;-71
2022/06/13 02:45:14;;;;;;;13.70;6.80;;;13.20;99.90;;;;;;5052138;28;20479;-71
2022/06/13 02:48:12;;;;;;;10.90;6.50;;;13.20;99.90;;;;;;5049780;28;20966;-71
2022/06/13 02:51:07;;;;;;;11.13;6.80;;;13.20;99.90;;;;;;5046031;28;20634;-71
2022/06/13 02:54:08;;;;;;;12.27;7.10;;;13.20;99.90;;;;;;5052292;28;20528;-71
2022/06/13 02:57:27;;;;;;;7.57;6.57;;;13.20;99.90;;;;;;5055934;28;20988;-71
2022/06/13 03:00:23;;;;;;;11.60;7.03;;;13.20;99.90;;;;;;5052097;28;20970;-71
2022/06/13 03:03:20;;;;;;;13.20;7.07;;;13.30;99.90;;;;;;5050400;28;20494;-71
2022/06/13 03:06:19;;;;;;;11.43;6.53;;;13.30;99.90;;;;;;5048258;28;20569;-71
2022/06/13 03:09:15;;;;;;;10.80;6.33;;;13.30;99.90;;;;;;5051810;28;20450;-70
2022/06/13 03:12:07;;;;;;;13.60;8.20;;;13.30;99.90;;;;;;5045543;28;20867;-70
2022/06/13 03:15:02;;;;;;;9.40;6.43;;;13.30;99.90;;;;;;5050816;28;23891;-70
2022/06/13 03:17:57;;;;;;;11.70;6.70;;;13.30;99.90;;;;;;5051966;28;20605;-70
2022/06/13 03:20:51;;;;;;;11.40;7.07;;;13.30;99.90;;;;;;5049656;28;21028;-71
2022/06/13 03:23:47;;;;;;;11.27;5.83;;;13.30;99.90;;;;;;5050803;28;20523;-71
2022/06/13 03:26:48;;;;;;;10.97;5.90;;;13.30;99.90;;;;;;5053994;28;20552;-70
2022/06/13 03:29:52;;;;;;;11.10;6.80;;;13.30;99.90;;;;;;5049615;28;20498;-70
2022/06/13 03:36:27;;;;;;;9.03;7.30;;;13.30;99.90;;;;;;5048612;28;20569;-70
2022/06/13 03:39:21;;;;;;;9.47;6.40;;;13.30;99.90;;;;;;5045320;28;20989;-71
2022/06/13 03:42:16;;;;;;;8.07;5.80;;;13.20;99.90;;;;;;5049960;28;21157;-70
2022/06/13 03:45:16;;;;;;;11.83;6.90;;;13.30;99.90;;;;;;5048799;28;20605;-70
2022/06/13 03:48:20;;;;;;;10.40;6.27;;;13.30;99.90;;;;;;5052519;28;20561;-71
2022/06/13 03:51:30;;;;;;;13.40;6.90;;;13.30;99.90;;;;;;5049350;28;20488;-71
2022/06/13 03:57:54;;;;;;;12.27;6.53;;;13.40;99.90;;;;;;5063917;28;20894;-70
2022/06/13 04:01:27;;;;;;;8.07;5.87;;;13.40;99.90;;;;;;5049835;28;20454;-71
2022/06/13 04:04:25;;;;;;;11.60;6.47;;;13.40;99.90;;;;;;5051238;28;20937;-70
2022/06/13 04:07:18;;;;;;;11.50;6.20;;;13.40;99.90;;;;;;5051697;28;20450;-70
2022/06/13 04:10:13;;;;;;;11.43;6.87;;;13.40;99.90;;;;;;5049877;28;20450;-71
2022/06/13 04:13:36;;;;;;;10.23;6.40;;;13.40;99.90;;;;;;5050633;28;20508;-70
2022/06/13 04:16:51;;;;;;;11.00;6.30;;;13.40;99.90;;;;;;5054420;28;20560;-70
2022/06/13 04:19:57;;;;;;;10.43;6.90;;;13.40;99.90;;;;;;5050943;28;20583;-71
2022/06/13 04:22:57;;;;;;;9.70;7.27;;;13.40;99.90;;;;;;5053621;28;20478;-71
2022/06/13 04:25:52;;;;;;;12.73;6.47;;;13.40;99.90;;;;;;5053565;28;20473;-71
2022/06/13 04:29:14;;;;;;;11.27;7.33;;;13.40;99.90;;;;;;5054056;28;20465;-70
2022/06/13 04:32:06;;;;;;;15.60;8.03;;;13.50;99.90;;;;;;5040152;28;20548;-70
2022/06/13 04:35:27;;;;;;;16.90;7.90;;;13.50;99.90;;;;;;5041991;28;20535;-70
2022/06/13 04:38:30;;;;;;;10.53;6.90;;;13.60;99.90;;;;;;5056405;28;20446;-70
2022/06/13 04:41:27;;;;;;;11.73;6.77;;;13.50;99.90;;;;;;5042341;28;20975;-70
2022/06/13 04:44:23;;;;;;;10.00;6.90;;;13.40;99.90;;;;;;5048532;28;21012;-70
2022/06/13 04:47:26;;;;;;;10.97;7.43;;;13.40;99.90;;;;;;5046017;28;20900;-70
2022/06/13 04:53:45;;;;;;;14.13;7.87;;;13.30;99.90;;;;;;5045393;28;20469;-70
2022/06/13 04:56:53;;;;;;;12.13;7.10;;;13.30;99.90;;;;;;5047262;28;20876;-71
2022/06/13 05:00:16;;;;;;;13.50;7.93;;;13.30;99.90;;;;;;5048435;28;20453;-70
2022/06/13 05:03:22;;;;;;;12.13;7.47;;;13.30;99.90;;;;;;5024081;28;20516;-70
2022/06/13 05:06:23;;;;;;;10.50;7.50;;;13.30;99.90;;;;;;5048760;28;20522;-72
2022/06/13 05:09:23;;;;;;;14.30;8.13;;;13.30;99.90;;;;;;5049709;28;20548;-72
2022/06/13 05:12:28;;;;;;;8.67;6.40;;;13.40;99.90;;;;;;5054858;28;20478;-72
2022/06/13 05:15:21;;;;;;;14.03;8.20;;;13.50;99.90;;;;;;5037927;28;20529;-72
2022/06/13 05:18:32;;;;;;;11.80;7.13;;;13.60;99.90;;;;;;5039820;28;20454;-72
2022/06/13 05:21:38;;;;;;;9.57;6.27;;;13.70;99.90;;;;;;5045408;28;20445;-72
2022/06/13 05:24:57;;;;;;;9.53;6.87;;;13.70;99.90;;;;;;5035880;28;20565;-72
2022/06/13 05:27:55;;;;;;;9.87;6.60;;;13.80;99.90;;;;;;5043735;28;20644;-72
2022/06/13 05:30:57;;;;;;;11.00;7.03;;;13.90;99.90;;;;;;5041140;28;20861;-70
2022/06/13 05:33:52;;;;;;;9.43;6.80;;;14.00;99.90;;;;;;5022436;28;20485;-71
2022/06/13 05:36:41;;;;;;;9.13;6.80;;;14.10;99.90;;;;;;5021829;28;20948;-71
2022/06/13 05:39:34;;;;;;;15.03;7.30;;;14.10;99.90;;;;;;5030402;28;21747;-73
2022/06/13 05:42:26;;;;;;;7.33;6.03;;;14.20;99.90;;;;;;5034595;28;20485;-71
2022/06/13 05:45:25;;;;;;;9.70;6.50;;;14.30;99.90;;;;;;5037747;28;20572;-70
2022/06/13 05:48:26;;;;;;;8.97;5.90;;;14.30;99.90;;;;;;5039346;28;20469;-70
2022/06/13 05:51:33;;;;;;;10.03;5.83;;;14.30;99.90;;;;;;5039520;28;20454;-70
2022/06/13 05:54:22;;;;;;;8.60;5.53;;;14.30;99.90;;;;;;5039320;28;20943;-70
2022/06/13 05:57:20;;;;;;;9.03;5.70;;;14.40;99.90;;;;;;5044337;28;20770;-70
2022/06/13 06:00:17;;;;;;;11.23;6.20;;;14.50;99.90;;;;;;5039582;28;20462;-70
2022/06/13 06:03:05;;;;;;;9.07;5.63;;;14.60;99.90;;;;;;5021125;28;21000;-71
2022/06/13 06:05:56;;;;;;;8.47;6.10;;;14.60;99.90;;;;;;5013075;28;20482;-70
2022/06/13 06:08:46;;;;;;;9.50;6.10;;;14.70;99.90;;;;;;5041427;28;20470;-70
2022/06/13 06:11:36;;;;;;;7.70;5.20;;;14.70;99.90;;;;;;5042578;28;20555;-70
2022/06/13 06:14:25;;;;;;;10.20;5.90;;;14.70;99.90;;;;;;5040879;28;20519;-70
2022/06/13 06:17:13;;;;;;;10.03;5.20;;;14.80;99.90;;;;;;5045079;28;20498;-70
2022/06/13 06:20:01;;;;;;;7.60;5.50;;;14.90;99.90;;;;;;5050186;28;20447;-70
2022/06/13 06:22:54;;;;;;;9.87;6.60;;;14.90;99.90;;;;;;5048124;28;20553;-70
2022/06/13 06:25:44;;;;;;;9.50;5.50;;;15.00;99.90;;;;;;5049048;28;20889;-70
2022/06/13 06:28:33;;;;;;;9.27;5.50;;;15.10;99.90;;;;;;5056505;28;20597;-70
2022/06/13 06:31:22;;;;;;;8.67;5.40;;;15.10;99.90;;;;;;5051896;28;20471;-70
2022/06/13 06:34:10;;;;;;;11.43;5.23;;;15.20;99.90;;;;;;5048137;28;20496;-70
2022/06/13 06:36:58;;;;;;;11.87;5.40;;;15.20;99.90;;;;;;5047434;28;20493;-70
2022/06/13 06:39:51;;;;;;;8.07;4.97;;;15.30;99.90;;;;;;5048216;28;20453;-70
2022/06/13 06:42:40;;;;;;;7.50;4.70;;;15.30;99.90;;;;;;5044159;28;20501;-70
2022/06/13 06:45:43;;;;;;;12.47;5.17;;;15.30;99.90;;;;;;5051680;28;20488;-71
2022/06/13 06:48:36;;;;;;;8.47;4.67;;;15.30;99.90;;;;;;5050946;28;20453;-70
2022/06/13 06:51:29;;;;;;;6.80;4.50;;;15.40;99.90;;;;;;5044780;28;20450;-70
2022/06/13 07:00:33;;;;;;;9.07;4.93;;;15.70;99.90;;;;;;5039977;28;20491;-70
2022/06/13 07:03:21;;;;;;;7.33;3.70;;;15.70;99.90;;;;;;5037175;28;20729;-70
2022/06/13 07:06:17;;;;;;;8.93;3.73;;;15.80;99.90;;;;;;5045648;28;20459;-70
2022/06/13 07:09:07;;;;;;;6.63;3.80;;;15.80;99.90;;;;;;5049678;28;20438;-70
2022/06/13 07:11:57;;;;;;;8.90;4.70;;;15.70;99.90;;;;;;5042593;28;20490;-70
2022/06/13 07:14:47;;;;;;;5.60;3.50;;;15.70;99.90;;;;;;5043648;28;20988;-70
2022/06/13 07:17:35;;;;;;;6.80;3.90;;;15.60;99.90;;;;;;5046454;28;20472;-70
2022/06/13 07:20:23;;;;;;;8.20;4.40;;;15.60;99.90;;;;;;5044477;28;20540;-71
2022/06/13 07:23:16;;;;;;;7.20;4.17;;;15.60;99.90;;;;;;5037498;28;20477;-70
2022/06/13 07:26:05;;;;;;;7.03;3.73;;;15.50;99.90;;;;;;5045525;28;20516;-71
2022/06/13 07:28:56;;;;;;;8.33;4.27;;;15.40;99.90;;;;;;5053355;28;21040;-71
2022/06/13 07:31:49;;;;;;;11.40;4.27;;;15.40;99.90;;;;;;5049008;28;20557;-71
2022/06/13 07:34:39;;;;;;;7.00;3.87;;;15.30;99.90;;;;;;5047888;28;20514;-72
2022/06/13 07:40:36;;;;;;;9.23;4.00;;;15.10;99.90;;;;;;5047470;28;20446;-72
2022/06/13 07:43:29;;;;;;;5.13;2.80;;;14.80;99.90;;;;;;5052611;28;20480;-72
2022/06/13 07:46:17;;;;;;;3.83;2.50;;;14.70;99.90;;;;;;5047772;28;20478;-72
2022/06/13 07:49:08;;;;;;;4.70;2.90;;;14.50;99.90;;;;;;5045842;28;20486;-73
2022/06/13 07:51:56;;;;;;;3.10;2.30;;;14.30;99.90;;;;;;5051105;28;20544;-72
2022/06/13 07:54:45;;;;;;;3.83;2.23;;;14.20;99.90;;;;;;5043841;28;20489;-72
2022/06/13 07:57:34;;;;;;;4.77;2.10;;;14.10;99.90;;;;;;5047328;28;20978;-72
2022/06/13 08:00:25;;;;;;;4.97;2.37;;;14.10;99.90;;;;;;5043521;28;21004;-73
2022/06/13 08:03:18;;;;;;;4.00;2.40;;;14.10;99.90;;;;;;5045269;28;20467;-72
2022/06/13 08:06:10;;;;;;;2.20;2.00;;;14.00;99.90;;;;;;5046715;28;21020;-72
2022/06/13 08:09:01;;;;;;;2.10;1.90;;;14.00;99.90;;;;;;5044734;28;20556;-72
2022/06/13 08:11:51;;;;;;;3.10;2.23;;;13.90;99.90;;;;;;5047417;28;20466;-72
2022/06/13 08:14:45;;;;;;;2.23;2.03;;;13.80;99.90;;;;;;5053025;28;20479;-72
2022/06/13 08:17:33;;;;;;;3.10;2.03;;;13.80;99.90;;;;;;5043455;28;20462;-72
2022/06/13 08:20:24;;;;;;;2.87;2.37;;;13.80;99.90;;;;;;5046323;28;20968;-72
2022/06/13 08:23:16;;;;;;;3.97;2.40;;;13.80;99.90;;;;;;5045126;28;20613;-72
2022/06/13 08:26:04;;;;;;;4.50;2.77;;;13.70;99.90;;;;;;5043257;28;21061;-72
2022/06/13 08:28:52;;;;;;;5.23;2.73;;;13.70;99.90;;;;;;5044407;28;20480;-72
2022/06/13 08:31:41;;;;;;;4.03;2.90;;;13.70;99.90;;;;;;5041513;28;21120;-72
2022/06/13 08:34:31;;;;;;;5.63;2.73;;;13.70;99.90;;;;;;5044431;28;20470;-72
2022/06/13 08:37:21;;;;;;;7.40;3.20;;;13.70;99.90;;;;;;5042898;28;22727;-72
2022/06/13 08:40:12;;;;;;;5.20;2.57;;;13.60;99.90;;;;;;5044001;28;21139;-72
2022/06/13 08:43:09;;;;;;;3.60;2.73;;;13.60;99.90;;;;;;5048767;28;20478;-72
2022/06/13 08:46:02;;;;;;;4.40;2.80;;;13.50;99.90;;;;;;5044109;28;20632;-72
2022/06/13 08:48:55;;;;;;;3.30;2.53;;;13.50;99.90;;;;;;5046979;28;20494;-72
2022/06/13 08:51:46;;;;;;;2.63;2.40;;;13.50;99.90;;;;;;5043284;28;20458;-72
2022/06/13 08:54:38;;;;;;;3.10;2.30;;;13.60;99.90;;;;;;5048739;28;20507;-72
2022/06/13 08:57:33;;;;;;;5.63;2.30;;;13.70;99.90;;;;;;5044551;28;20577;-72
2022/06/13 09:00:25;;;;;;;3.53;1.97;;;13.80;99.90;;;;;;5044128;28;20446;-72
2022/06/13 09:03:19;;;;;;;3.20;2.00;;;13.90;99.90;;;;;;5048380;28;20951;-72
2022/06/13 09:06:15;;;;;;;2.40;1.70;;;14.00;99.90;;;;;;5038889;28;20483;-71
2022/06/13 09:09:09;;;;;;;1.80;1.67;;;14.10;99.90;;;;;;5047093;28;20473;-71
2022/06/13 09:12:03;;;;;;;1.70;1.60;;;14.10;99.90;;;;;;5041499;28;20457;-71
2022/06/13 09:15:04;;;;;;;2.17;1.40;;;14.20;99.90;;;;;;5045926;28;20553;-72
2022/06/13 09:17:57;;;;;;;1.30;1.20;;;14.10;99.90;;;;;;5036868;28;20493;-71
2022/06/13 09:20:50;;;;;;;1.47;1.37;;;14.20;99.90;;;;;;5041722;28;20446;-71
2022/06/13 09:23:47;;;;;;;2.77;1.50;;;14.20;99.90;;;;;;5040479;28;20595;-72
2022/06/13 09:26:42;;;;;;;1.27;1.20;;;14.20;99.90;;;;;;5040526;28;20517;-71
2022/06/13 09:29:39;;;;;;;2.20;1.40;;;14.30;99.90;;;;;;5042675;28;21236;-71
2022/06/13 09:32:37;;;;;;;1.37;1.20;;;14.40;99.90;;;;;;5042866;28;20538;-71
2022/06/13 09:35:28;;;;;;;1.80;1.53;;;14.50;99.90;;;;;;5041438;28;20836;-71
2022/06/13 09:38:22;;;;;;;1.33;1.20;;;14.60;99.90;;;;;;5040475;28;20487;-71
2022/06/13 09:41:32;;;;;;;1.97;1.70;;;14.60;99.90;;;;;;5043547;28;20554;-71
2022/06/13 09:44:31;;;;;;;3.10;1.63;;;14.70;99.90;;;;;;5042408;28;20477;-71
2022/06/13 09:47:29;;;;;;;2.83;1.50;;;14.80;99.90;;;;;;5047743;28;20624;-70
2022/06/13 09:50:24;;;;;;;1.83;1.27;;;14.80;99.90;;;;;;5043013;28;20478;-71
2022/06/13 09:53:19;;;;;;;1.57;1.47;;;14.80;99.90;;;;;;5044598;28;21040;-71
2022/06/13 09:56:13;;;;;;;1.37;1.27;;;14.90;99.90;;;;;;5050562;28;20482;-71
2022/06/13 09:59:12;;;;;;;1.23;1.07;;;15.00;99.90;;;;;;5045896;28;20547;-70
2022/06/13 10:02:06;;;;;;;1.73;0.90;;;15.00;99.90;;;;;;5044540;28;20911;-71
2022/06/13 10:05:17;;;;;;;1.20;1.10;;;15.10;99.90;;;;;;5043838;28;20840;-71
2022/06/13 10:08:38;;;;;;;2.60;1.23;;;15.10;99.90;;;;;;5043619;28;20473;-72
2022/06/13 10:11:50;;;;;;;2.50;1.10;;;15.30;99.90;;;;;;5049574;28;20450;-73
2022/06/13 10:14:55;;;;;;;1.00;0.90;;;15.30;99.90;;;;;;5046385;28;20556;-72
2022/06/13 10:17:57;;;;;;;1.00;0.90;;;15.40;99.90;;;;;;5052105;28;20460;-72
2022/06/13 10:20:52;;;;;;;0.93;0.93;;;15.40;99.90;;;;;;5040863;28;20458;-72
2022/06/13 10:23:48;;;;;;;1.10;1.00;;;15.50;99.90;;;;;;5044130;28;20579;-72
2022/06/13 10:26:49;;;;;;;1.27;1.00;;;15.50;99.90;;;;;;5041917;28;20481;-72
2022/06/13 10:29:54;;;;;;;4.63;1.07;;;15.50;99.90;;;;;;5039267;28;20560;-71
2022/06/13 10:32:59;;;;;;;2.00;1.37;;;15.60;99.90;;;;;;5037851;28;20492;-71
2022/06/13 10:35:51;;;;;;;2.70;0.90;;;15.70;99.90;;;;;;5045678;28;20492;-75
2022/06/13 10:38:56;;;;;;;1.97;1.10;;;15.80;99.90;;;;;;5052268;28;20573;-74
2022/06/13 10:41:48;;;;;;;2.80;1.10;;;16.00;99.90;;;;;;5046732;28;20913;-73
2022/06/13 10:44:39;;;;;;;1.23;1.07;;;16.20;99.90;;;;;;5044491;28;21075;-74
2022/06/13 10:47:34;;;;;;;1.10;1.00;;;16.40;99.90;;;;;;5039946;28;20565;-73
2022/06/13 10:50:27;;;;;;;2.63;1.47;;;16.50;99.90;;;;;;5043805;28;20618;-73
2022/06/13 10:53:20;;;;;;;1.73;1.00;;;16.70;99.90;;;;;;5047376;28;20505;-72
2022/06/13 10:56:15;;;;;;;0.93;0.90;;;16.90;99.90;;;;;;5040361;28;20493;-72
2022/06/13 10:59:04;;;;;;;1.20;0.80;;;17.00;99.90;;;;;;5041413;28;20509;-72
2022/06/13 11:02:00;;;;;;;1.43;1.07;;;17.00;99.90;;;;;;5044741;28;20794;-71
2022/06/13 11:05:05;;;;;;;0.93;0.90;;;17.00;99.90;;;;;;5044268;28;20561;-72
2022/06/13 11:07:58;;;;;;;1.47;0.90;;;17.10;99.90;;;;;;5048102;28;20461;-71
2022/06/13 11:10:54;;;;;;;0.87;0.87;;;17.10;99.90;;;;;;5040173;28;20499;-72
2022/06/13 11:13:54;;;;;;;1.63;1.03;;;17.00;99.90;;;;;;5044761;28;21000;-71
2022/06/13 11:23:08;;;;;;;2.70;1.43;;;16.90;99.90;;;;;;5042391;28;21375;-71
2022/06/13 11:25:59;;;;;;;1.50;1.40;;;17.00;99.90;;;;;;5040953;28;20540;-74
2022/06/13 11:28:48;;;;;;;1.33;1.10;;;17.10;99.90;;;;;;5038632;28;20458;-72
2022/06/13 11:31:48;;;;;;;1.43;0.90;;;17.20;99.90;;;;;;5038445;28;20489;-71
2022/06/13 11:34:41;;;;;;;2.47;1.07;;;17.30;99.90;;;;;;5036585;28;20556;-71
2022/06/13 11:37:30;;;;;;;2.73;1.27;;;17.40;99.90;;;;;;5043418;28;20450;-71
2022/06/13 11:40:27;;;;;;;1.67;1.07;;;17.40;99.90;;;;;;5041303;28;20649;-73
2022/06/13 11:43:22;;;;;;;2.93;1.10;;;17.50;99.90;;;;;;5040505;28;20474;-73
2022/06/13 11:46:31;;;;;;;3.43;1.40;;;17.50;99.90;;;;;;5037360;28;20540;-73
2022/06/13 11:49:36;;;;;;;1.30;0.90;;;17.50;99.90;;;;;;5036289;28;20596;-72
2022/06/13 11:55:51;;;;;;;1.80;1.70;;;17.30;99.90;;;;;;5037790;28;20674;-73
2022/06/13 11:58:43;;;;;;;2.20;1.40;;;17.30;99.90;;;;;;5040395;28;20478;-72
2022/06/13 12:01:35;;;;;;;2.10;1.10;;;17.40;99.90;;;;;;5037790;28;20496;-73
2022/06/13 12:04:28;;;;;;;3.50;1.10;;;17.60;99.90;;;;;;5042179;28;20565;-74
2022/06/13 12:07:24;;;;;;;1.53;0.97;;;17.70;99.90;;;;;;5036911;28;20470;-72
2022/06/13 12:10:20;;;;;;;1.47;0.93;;;17.90;99.90;;;;;;5036357;28;20505;-73
2022/06/13 12:13:15;;;;;;;1.77;1.00;;;18.10;99.90;;;;;;5035200;28;20509;-72
2022/06/13 12:16:17;;;;;;;1.40;1.00;;;18.30;99.90;;;;;;5033877;28;20479;-72
2022/06/13 12:19:21;;;;;;;1.50;1.20;;;18.40;99.90;;;;;;5040997;28;20543;-73
2022/06/13 12:22:16;;;;;;;1.37;1.10;;;18.60;99.90;;;;;;5039962;28;21319;-72
2022/06/13 12:25:12;;;;;;;1.47;1.00;;;18.60;99.90;;;;;;5040657;28;20926;-72
2022/06/13 12:28:06;;;;;;;4.20;1.10;;;18.60;99.90;;;;;;5037315;28;20560;-72
2022/06/13 12:31:03;;;;;;;3.10;1.13;;;18.70;99.90;;;;;;5038498;28;20461;-73
2022/06/13 12:34:01;;;;;;;2.20;1.00;;;18.90;99.90;;;;;;5033113;28;20570;-72
2022/06/13 12:37:01;;;;;;;1.63;0.93;;;19.00;99.90;;;;;;5032663;28;20453;-71
2022/06/13 12:40:02;;;;;;;2.10;0.93;;;19.10;99.90;;;;;;5041361;28;20524;-71
2022/06/13 12:43:01;;;;;;;1.97;1.17;;;19.20;99.90;;;;;;5042121;28;21065;-71
2022/06/13 12:46:19;;;;;;;1.30;0.90;;;19.40;99.90;;;;;;5031556;28;20937;-71
2022/06/13 12:49:45;;;;;;;1.20;0.97;;;19.40;99.90;;;;;;5027675;28;20451;-70
2022/06/13 12:52:52;;;;;;;0.73;0.73;;;19.30;99.90;;;;;;5036951;28;20482;-73
2022/06/13 12:55:50;;;;;;;3.07;1.30;;;19.40;99.90;;;;;;5036791;28;20556;-71
2022/06/13 12:59:03;;;;;;;0.87;0.87;;;19.60;99.90;;;;;;5030686;28;20469;-71
2022/06/13 13:02:02;;;;;;;1.53;1.10;;;19.80;99.90;;;;;;5026296;28;20466;-71
2022/06/13 13:05:14;;;;;;;3.13;1.20;;;20.00;99.90;;;;;;5033427;28;20892;-71
2022/06/13 13:08:21;;;;;;;2.30;1.20;;;20.00;99.90;;;;;;5034922;28;20475;-71
2022/06/13 13:11:23;;;;;;;3.00;1.20;;;19.90;99.90;;;;;;5032229;28;20457;-71
2022/06/13 13:14:23;;;;;;;1.70;1.10;;;19.90;99.90;;;;;;5032916;28;20505;-71
2022/06/13 13:17:22;;;;;;;1.30;1.20;;;19.90;99.90;;;;;;5027690;28;22503;-71
2022/06/13 13:20:19;;;;;;;2.70;1.10;;;19.90;99.90;;;;;;5038201;28;20911;-70
2022/06/13 13:23:15;;;;;;;2.37;1.20;;;20.00;99.90;;;;;;5035837;28;20478;-70
2022/06/13 13:26:20;;;;;;;2.53;0.80;;;20.00;99.90;;;;;;5041020;28;20513;-70
2022/06/13 13:29:17;;;;;;;1.87;1.00;;;20.00;99.90;;;;;;5038473;28;20812;-71
2022/06/13 13:32:15;;;;;;;1.53;1.07;;;20.10;99.90;;;;;;5037416;28;20629;-71
2022/06/13 13:35:18;;;;;;;2.20;1.00;;;20.10;99.90;;;;;;5042799;28;20551;-71
2022/06/13 13:38:15;;;;;;;1.73;0.97;;;20.30;99.90;;;;;;5041326;28;20927;-71
2022/06/13 13:41:10;;;;;;;2.40;1.23;;;20.20;99.90;;;;;;5035177;28;20589;-71
2022/06/13 13:44:04;;;;;;;1.67;0.90;;;20.10;99.90;;;;;;5030200;28;20473;-71
2022/06/13 13:47:03;;;;;;;2.30;0.97;;;19.90;99.90;;;;;;5031693;28;20481;-71
2022/06/13 13:49:58;;;;;;;3.60;1.17;;;19.90;99.90;;;;;;5037638;28;20484;-71
2022/06/13 13:52:49;;;;;;;1.53;1.27;;;20.00;99.90;;;;;;5028217;28;20651;-71
2022/06/13 13:55:43;;;;;;;3.57;1.20;;;20.10;99.90;;;;;;5036332;28;20568;-71
2022/06/13 13:58:33;;;;;;;2.20;1.20;;;20.20;99.90;;;;;;5034360;28;20708;-71
2022/06/13 14:01:38;;;;;;;2.73;1.30;;;20.30;99.90;;;;;;5033326;28;20455;-71
2022/06/13 14:04:51;;;;;;;2.47;1.43;;;20.50;99.90;;;;;;5021911;28;20509;-71
2022/06/13 14:07:58;;;;;;;1.70;0.97;;;20.60;99.90;;;;;;5030916;28;20489;-71
2022/06/13 14:10:52;;;;;;;3.33;0.90;;;20.60;99.90;;;;;;5027898;28;20559;-71
2022/06/13 14:13:44;;;;;;;3.47;1.30;;;20.60;99.90;;;;;;5031147;28;20609;-73
2022/06/13 14:16:40;;;;;;;2.77;1.00;;;20.50;99.90;;;;;;5044535;28;20447;-74
2022/06/13 14:19:33;;;;;;;3.50;1.53;;;20.60;99.90;;;;;;5021201;28;20482;-74
2022/06/13 14:22:23;;;;;;;2.50;1.40;;;20.60;99.90;;;;;;5025334;28;20560;-76
2022/06/13 14:25:23;;;;;;;3.13;1.00;;;20.60;99.90;;;;;;5040213;28;20513;-75
2022/06/13 14:28:18;;;;;;;1.30;0.90;;;20.60;99.90;;;;;;5044270;28;20518;-75
2022/06/13 14:31:09;;;;;;;1.90;0.90;;;20.50;99.90;;;;;;5026716;28;21378;-74
2022/06/13 14:37:13;;;;;;;1.97;1.30;;;20.40;99.90;;;;;;5025497;28;21247;-78
2022/06/13 14:40:10;;;;;;;2.20;1.10;;;20.50;99.90;;;;;;5035805;28;20462;-81
2022/06/13 14:43:06;;;;;;;3.00;1.20;;;20.60;99.90;;;;;;5046283;28;20478;-78
2022/06/13 14:46:00;;;;;;;1.50;1.00;;;20.90;99.90;;;;;;5050330;28;21044;-81
2022/06/13 14:48:50;;;;;;;1.43;0.97;;;20.90;99.90;;;;;;5055851;28;20478;-79
2022/06/13 14:52:08;;;;;;;2.63;1.20;;;20.90;99.90;;;;;;5051050;28;20535;-79
2022/06/13 14:55:23;;;;;;;1.70;1.00;;;20.90;99.90;;;;;;5045929;28;21074;-78
2022/06/13 14:58:11;;;;;;;2.43;1.10;;;20.90;99.90;;;;;;5050562;28;20500;-78
2022/06/13 15:01:22;;;;;;;2.27;1.23;;;21.00;99.90;;;;;;5065525;28;20458;-79
2022/06/13 15:04:16;;;;;;;2.17;1.30;;;20.90;99.90;;;;;;5046734;28;20486;-78
2022/06/13 15:07:27;;;;;;;2.30;1.30;;;21.10;99.90;;;;;;5045564;28;22069;-78
2022/06/13 15:10:21;;;;;;;2.00;1.30;;;21.10;99.90;;;;;;5042266;28;20490;-78
2022/06/13 15:13:10;;;;;;;3.67;1.67;;;21.10;99.90;;;;;;5041952;28;20481;-78
2022/06/13 15:16:01;;;;;;;3.70;1.50;;;20.70;99.90;;;;;;5050639;28;20507;-81
2022/06/13 15:19:03;;;;;;;3.80;2.00;;;20.60;99.90;;;;;;5037201;28;20451;-81
2022/06/13 15:21:55;;;;;;;3.00;1.80;;;20.60;99.90;;;;;;5043564;28;20472;-79
2022/06/13 15:24:46;;;;;;;3.80;1.60;;;20.50;99.90;;;;;;5044779;28;21016;-79
2022/06/13 15:27:49;;;;;;;1.80;1.30;;;20.50;99.90;;;;;;5042783;28;21130;-78
2022/06/13 15:30:40;;;;;;;2.60;1.53;;;20.70;99.90;;;;;;5047124;28;20742;-77
2022/06/13 15:33:28;;;;;;;4.50;1.67;;;20.40;99.90;;;;;;5048599;28;20478;-77
2022/06/13 15:36:19;;;;;;;2.70;1.80;;;20.10;99.90;;;;;;5044497;28;20450;-76
2022/06/13 15:39:09;;;;;;;3.43;1.93;;;19.80;99.90;;;;;;5039593;28;20601;-78
2022/06/13 15:42:00;;;;;;;3.60;1.70;;;19.60;99.90;;;;;;5047523;28;20679;-76
2022/06/13 15:44:50;;;;;;;7.60;2.10;;;19.40;99.90;;;;;;5037261;28;20481;-77
2022/06/13 15:47:38;;;;;;;2.93;1.50;;;19.30;99.90;;;;;;5045105;28;21109;-79
2022/06/13 15:50:29;;;;;;;4.47;1.40;;;19.20;99.90;;;;;;5043289;28;20449;-81
2022/06/13 15:53:28;;;;;;;2.43;1.60;;;19.30;99.90;;;;;;5043205;28;20463;-82
2022/06/13 15:56:31;;;;;;;6.17;1.90;;;19.40;99.90;;;;;;5043326;28;20485;-79
2022/06/13 15:59:20;;;;;;;3.17;1.60;;;19.40;99.90;;;;;;5043781;28;20446;-78
2022/06/13 16:02:10;;;;;;;4.63;1.83;;;19.30;99.90;;;;;;5043446;28;20461;-79
2022/06/13 16:04:59;;;;;;;5.33;1.87;;;19.20;99.90;;;;;;5045564;28;20489;-80